Aeroporto :
LOGIN :

Iscrizione | Disclaimer

   EN    FR    IT 

 










Sommario :    VFR   VFR Marginale   IFR   IFR Intensivo   IFR Molto Intensivo
Visibilità : 
Base nubi : 
>= 8 km
>= 3000ft
5 / 8 km
1000 / 3000 ft
1500m / 5 km
500 / 1000 ft
800 / 1500m
200 / 500 ft
< 800m
< 200 ft
Simboli :   Temporali  Nebbia  Neve Forte  Precipitazioni Forti  Vento > 20 kt
SIGMETs :   Varie  Temporali  Ghiacco  Turbolenza  Onda orograficha  Ceneri Vulcaniche






- Altitudine del aeroporto : 313 ft


LFQA - Reims-Prunay

ULTIMO METAR :
  • 191630Z AUTO 17002KT 9999 FEW020 SCT078 OVC088 13/12 Q1005

METARs OBSOLETI :
  • 191600Z AUTO 21004KT 9999 -RA FEW018 SCT036 OVC080 14/11 Q1005
  • 191530Z AUTO 20003KT 9999 BKN020 BKN028 OVC078 14/11 Q1006
  • 191500Z AUTO 20003KT 9999 FEW017 SCT029 OVC076 14/12 Q1005
  • 191430Z AUTO 21006KT 9999 FEW016/// OVC080/// ///TCU 14/11 Q1005
  • 191400Z AUTO 21004KT 180V240 9999 FEW016/// OVC072/// ///TCU 14/11 Q1005

TAF N/A



MetMap, La meteo Aeronautica in un colpo d'occhio ! - Copyright ORBIFLY Dicembre 2007 - Disclaimer

ORBIFLY MET'MAP TEAM :

Programmazione e sviluppo : Alexandra Zaïnal
Concezione e sviluppo : Baudouin d'Aumeries
Co-Programmazione e sviluppo : Marc-Olivier Méhu
Supporto tecnico e logistico : Manuel Goepfert
Aiuto per la traduzione : Arnaldo La Scala

Contatto : metmap@orbifly.com




FONTI E CREDITI :

   NOAA